<?xml version="1.0" encoding="UTF-8" standalone="no" ?>
<gpx xmlns="http://www.topografix.com/GPX/1/1" xmlns:xsi="http://www.w3.org/2001/XMLSchema-instance" xsi:schemaLocation="http://www.topografix.com/GPX/1/1 http://www.topografix.com/GPX/1/1/gpx.xsd" version="1.1" creator="VisuGPX - https://www.visugpx.com">
  <metadata>
    <name>Parcours VTT Aglo 2021</name>
  </metadata>
  <trk>
    <name><![CDATA[Vert Aiguèze St Martin d'Ardèche]]></name>
    <extensions>
      <line xmlns="http://www.topografix.com/GPX/gpx_style/0/2">
        <color>00fa00</color>
        <width>4</width>
      </line>
    </extensions>
    <trkseg>
      <trkpt lat="44.30193" lon="4.55491">
        <ele>95</ele>
        <time>2021-07-04T13:18:20Z</time>
      </trkpt>
      <trkpt lat="44.30193" lon="4.55493">
        <ele>94</ele>
        <time>2021-07-04T13:18:20Z</time>
      </trkpt>
      <trkpt lat="44.30188" lon="4.55489">
        <ele>95</ele>
        <time>2021-07-04T13:18:22Z</time>
      </trkpt>
      <trkpt lat="44.30182" lon="4.55486">
        <ele>95</ele>
        <time>2021-07-04T13:18:23Z</time>
      </trkpt>
      <trkpt lat="44.30175" lon="4.55485">
        <ele>95</ele>
        <time>2021-07-04T13:18:25Z</time>
      </trkpt>
      <trkpt lat="44.3016" lon="4.55483">
        <ele>95</ele>
        <time>2021-07-04T13:18:28Z</time>
      </trkpt>
      <trkpt lat="44.30143" lon="4.55482">
        <ele>96</ele>
        <time>2021-07-04T13:18:32Z</time>
      </trkpt>
      <trkpt lat="44.30137" lon="4.55481">
        <ele>96</ele>
        <time>2021-07-04T13:18:34Z</time>
      </trkpt>
      <trkpt lat="44.30137" lon="4.55488">
        <ele>96</ele>
        <time>2021-07-04T13:18:35Z</time>
      </trkpt>
      <trkpt lat="44.30138" lon="4.55518">
        <ele>95</ele>
        <time>2021-07-04T13:18:40Z</time>
      </trkpt>
      <trkpt lat="44.30161" lon="4.55559">
        <ele>93</ele>
        <time>2021-07-04T13:18:49Z</time>
      </trkpt>
      <trkpt lat="44.30178" lon="4.55587">
        <ele>92</ele>
        <time>2021-07-04T13:18:55Z</time>
      </trkpt>
      <trkpt lat="44.30195" lon="4.55614">
        <ele>92</ele>
        <time>2021-07-04T13:19:01Z</time>
      </trkpt>
      <trkpt lat="44.302" lon="4.55626">
        <ele>92</ele>
        <time>2021-07-04T13:19:03Z</time>
      </trkpt>
      <trkpt lat="44.30203" lon="4.55634">
        <ele>92</ele>
        <time>2021-07-04T13:19:05Z</time>
      </trkpt>
      <trkpt lat="44.30206" lon="4.55632">
        <ele>92</ele>
        <time>2021-07-04T13:19:05Z</time>
      </trkpt>
      <trkpt lat="44.30206" lon="4.55632">
        <ele>92</ele>
        <time>2021-07-04T13:19:05Z</time>
      </trkpt>
      <trkpt lat="44.30203" lon="4.55634">
        <ele>92</ele>
        <time>2021-07-04T13:19:06Z</time>
      </trkpt>
      <trkpt lat="44.30107" lon="4.55676">
        <ele>94</ele>
        <time>2021-07-04T13:19:30Z</time>
      </trkpt>
      <trkpt lat="44.30103" lon="4.55679">
        <ele>94</ele>
        <time>2021-07-04T13:19:31Z</time>
      </trkpt>
      <trkpt lat="44.30104" lon="4.55705">
        <ele>94</ele>
        <time>2021-07-04T13:19:35Z</time>
      </trkpt>
      <trkpt lat="44.30116" lon="4.55751">
        <ele>94</ele>
        <time>2021-07-04T13:19:43Z</time>
      </trkpt>
      <trkpt lat="44.30122" lon="4.55804">
        <ele>95</ele>
        <time>2021-07-04T13:19:52Z</time>
      </trkpt>
      <trkpt lat="44.30128" lon="4.55834">
        <ele>95</ele>
        <time>2021-07-04T13:19:57Z</time>
      </trkpt>
      <trkpt lat="44.30143" lon="4.55866">
        <ele>90</ele>
        <time>2021-07-04T13:20:04Z</time>
      </trkpt>
      <trkpt lat="44.30137" lon="4.55895">
        <ele>89</ele>
        <time>2021-07-04T13:20:09Z</time>
      </trkpt>
      <trkpt lat="44.30112" lon="4.55963">
        <ele>86</ele>
        <time>2021-07-04T13:20:22Z</time>
      </trkpt>
      <trkpt lat="44.30093" lon="4.56013">
        <ele>86</ele>
        <time>2021-07-04T13:20:31Z</time>
      </trkpt>
      <trkpt lat="44.30064" lon="4.56078">
        <ele>84</ele>
        <time>2021-07-04T13:20:44Z</time>
      </trkpt>
      <trkpt lat="44.30044" lon="4.56133">
        <ele>79</ele>
        <time>2021-07-04T13:20:54Z</time>
      </trkpt>
      <trkpt lat="44.30035" lon="4.56166">
        <ele>77</ele>
        <time>2021-07-04T13:21:00Z</time>
      </trkpt>
      <trkpt lat="44.30029" lon="4.56213">
        <ele>74</ele>
        <time>2021-07-04T13:21:08Z</time>
      </trkpt>
      <trkpt lat="44.30024" lon="4.56255">
        <ele>72</ele>
        <time>2021-07-04T13:21:15Z</time>
      </trkpt>
      <trkpt lat="44.30017" lon="4.5632">
        <ele>71</ele>
        <time>2021-07-04T13:21:26Z</time>
      </trkpt>
      <trkpt lat="44.30006" lon="4.56365">
        <ele>70</ele>
        <time>2021-07-04T13:21:34Z</time>
      </trkpt>
      <trkpt lat="44.29992" lon="4.5642">
        <ele>66</ele>
        <time>2021-07-04T13:21:44Z</time>
      </trkpt>
      <trkpt lat="44.29978" lon="4.5648">
        <ele>59</ele>
        <time>2021-07-04T13:21:54Z</time>
      </trkpt>
      <trkpt lat="44.29959" lon="4.56537">
        <ele>57</ele>
        <time>2021-07-04T13:22:05Z</time>
      </trkpt>
      <trkpt lat="44.29947" lon="4.56578">
        <ele>56</ele>
        <time>2021-07-04T13:22:12Z</time>
      </trkpt>
      <trkpt lat="44.29937" lon="4.56607">
        <ele>56</ele>
        <time>2021-07-04T13:22:18Z</time>
      </trkpt>
      <trkpt lat="44.29931" lon="4.56623">
        <ele>56</ele>
        <time>2021-07-04T13:22:21Z</time>
      </trkpt>
      <trkpt lat="44.29912" lon="4.56651">
        <ele>57</ele>
        <time>2021-07-04T13:22:27Z</time>
      </trkpt>
      <trkpt lat="44.29913" lon="4.56651">
        <ele>57</ele>
        <time>2021-07-04T13:22:27Z</time>
      </trkpt>
      <trkpt lat="44.29927" lon="4.56659">
        <ele>55</ele>
        <time>2021-07-04T13:22:31Z</time>
      </trkpt>
      <trkpt lat="44.30091" lon="4.56737">
        <ele>55</ele>
        <time>2021-07-04T13:23:11Z</time>
      </trkpt>
      <trkpt lat="44.30095" lon="4.5675">
        <ele>55</ele>
        <time>2021-07-04T13:23:14Z</time>
      </trkpt>
      <trkpt lat="44.30107" lon="4.56721">
        <ele>54</ele>
        <time>2021-07-04T13:23:19Z</time>
      </trkpt>
      <trkpt lat="44.30117" lon="4.56696">
        <ele>54</ele>
        <time>2021-07-04T13:23:24Z</time>
      </trkpt>
      <trkpt lat="44.30123" lon="4.56683">
        <ele>54</ele>
        <time>2021-07-04T13:23:27Z</time>
      </trkpt>
      <trkpt lat="44.30135" lon="4.56635">
        <ele>53</ele>
        <time>2021-07-04T13:23:35Z</time>
      </trkpt>
      <trkpt lat="44.30136" lon="4.56629">
        <ele>53</ele>
        <time>2021-07-04T13:23:36Z</time>
      </trkpt>
      <trkpt lat="44.30138" lon="4.56612">
        <ele>53</ele>
        <time>2021-07-04T13:23:39Z</time>
      </trkpt>
      <trkpt lat="44.30136" lon="4.56607">
        <ele>52</ele>
        <time>2021-07-04T13:23:40Z</time>
      </trkpt>
      <trkpt lat="44.30134" lon="4.56597">
        <ele>52</ele>
        <time>2021-07-04T13:23:42Z</time>
      </trkpt>
      <trkpt lat="44.30134" lon="4.56585">
        <ele>51</ele>
        <time>2021-07-04T13:23:44Z</time>
      </trkpt>
      <trkpt lat="44.3012" lon="4.56581">
        <ele>50</ele>
        <time>2021-07-04T13:23:47Z</time>
      </trkpt>
      <trkpt lat="44.30121" lon="4.56581">
        <ele>50</ele>
        <time>2021-07-04T13:23:47Z</time>
      </trkpt>
      <trkpt lat="44.3012" lon="4.56581">
        <ele>50</ele>
        <time>2021-07-04T13:23:48Z</time>
      </trkpt>
      <trkpt lat="44.30114" lon="4.56604">
        <ele>50</ele>
        <time>2021-07-04T13:23:52Z</time>
      </trkpt>
      <trkpt lat="44.30104" lon="4.5665">
        <ele>52</ele>
        <time>2021-07-04T13:24:00Z</time>
      </trkpt>
      <trkpt lat="44.30099" lon="4.56667">
        <ele>52</ele>
        <time>2021-07-04T13:24:03Z</time>
      </trkpt>
      <trkpt lat="44.30084" lon="4.56705">
        <ele>53</ele>
        <time>2021-07-04T13:24:10Z</time>
      </trkpt>
      <trkpt lat="44.30074" lon="4.56738">
        <ele>54</ele>
        <time>2021-07-04T13:24:16Z</time>
      </trkpt>
      <trkpt lat="44.30045" lon="4.5684">
        <ele>51</ele>
        <time>2021-07-04T13:24:34Z</time>
      </trkpt>
      <trkpt lat="44.30031" lon="4.56891">
        <ele>50</ele>
        <time>2021-07-04T13:24:44Z</time>
      </trkpt>
      <trkpt lat="44.30022" lon="4.56927">
        <ele>49</ele>
        <time>2021-07-04T13:24:50Z</time>
      </trkpt>
      <trkpt lat="44.30021" lon="4.56936">
        <ele>49</ele>
        <time>2021-07-04T13:24:51Z</time>
      </trkpt>
      <trkpt lat="44.30023" lon="4.56943">
        <ele>50</ele>
        <time>2021-07-04T13:24:53Z</time>
      </trkpt>
      <trkpt lat="44.30028" lon="4.56952">
        <ele>50</ele>
        <time>2021-07-04T13:24:55Z</time>
      </trkpt>
      <trkpt lat="44.30035" lon="4.5696">
        <ele>50</ele>
        <time>2021-07-04T13:24:57Z</time>
      </trkpt>
      <trkpt lat="44.30039" lon="4.56964">
        <ele>50</ele>
        <time>2021-07-04T13:24:58Z</time>
      </trkpt>
      <trkpt lat="44.30043" lon="4.56966">
        <ele>51</ele>
        <time>2021-07-04T13:24:59Z</time>
      </trkpt>
      <trkpt lat="44.30041" lon="4.5698">
        <ele>50</ele>
        <time>2021-07-04T13:25:01Z</time>
      </trkpt>
      <trkpt lat="44.30031" lon="4.57031">
        <ele>52</ele>
        <time>2021-07-04T13:25:10Z</time>
      </trkpt>
      <trkpt lat="44.3003" lon="4.5705">
        <ele>53</ele>
        <time>2021-07-04T13:25:13Z</time>
      </trkpt>
      <trkpt lat="44.30031" lon="4.5707">
        <ele>54</ele>
        <time>2021-07-04T13:25:17Z</time>
      </trkpt>
      <trkpt lat="44.3004" lon="4.57095">
        <ele>55</ele>
        <time>2021-07-04T13:25:21Z</time>
      </trkpt>
      <trkpt lat="44.30051" lon="4.57127">
        <ele>55</ele>
        <time>2021-07-04T13:25:27Z</time>
      </trkpt>
      <trkpt lat="44.30052" lon="4.57132">
        <ele>55</ele>
        <time>2021-07-04T13:25:28Z</time>
      </trkpt>
      <trkpt lat="44.30061" lon="4.57188">
        <ele>56</ele>
        <time>2021-07-04T13:25:38Z</time>
      </trkpt>
      <trkpt lat="44.30074" lon="4.57243">
        <ele>57</ele>
        <time>2021-07-04T13:25:47Z</time>
      </trkpt>
      <trkpt lat="44.30077" lon="4.57264">
        <ele>56</ele>
        <time>2021-07-04T13:25:51Z</time>
      </trkpt>
      <trkpt lat="44.30078" lon="4.57266">
        <ele>56</ele>
        <time>2021-07-04T13:25:51Z</time>
      </trkpt>
      <trkpt lat="44.30084" lon="4.57279">
        <ele>56</ele>
        <time>2021-07-04T13:25:54Z</time>
      </trkpt>
      <trkpt lat="44.30094" lon="4.57299">
        <ele>56</ele>
        <time>2021-07-04T13:25:58Z</time>
      </trkpt>
      <trkpt lat="44.30094" lon="4.57299">
        <ele>56</ele>
        <time>2021-07-04T13:25:58Z</time>
      </trkpt>
      <trkpt lat="44.30115" lon="4.57336">
        <ele>56</ele>
        <time>2021-07-04T13:26:06Z</time>
      </trkpt>
      <trkpt lat="44.30125" lon="4.57364">
        <ele>56</ele>
        <time>2021-07-04T13:26:11Z</time>
      </trkpt>
      <trkpt lat="44.30132" lon="4.57397">
        <ele>56</ele>
        <time>2021-07-04T13:26:17Z</time>
      </trkpt>
      <trkpt lat="44.30137" lon="4.5742">
        <ele>56</ele>
        <time>2021-07-04T13:26:21Z</time>
      </trkpt>
      <trkpt lat="44.30146" lon="4.57425">
        <ele>56</ele>
        <time>2021-07-04T13:26:23Z</time>
      </trkpt>
      <trkpt lat="44.30156" lon="4.57446">
        <ele>56</ele>
        <time>2021-07-04T13:26:27Z</time>
      </trkpt>
      <trkpt lat="44.30155" lon="4.57448">
        <ele>56</ele>
        <time>2021-07-04T13:26:28Z</time>
      </trkpt>
      <trkpt lat="44.30168" lon="4.57498">
        <ele>55</ele>
        <time>2021-07-04T13:26:37Z</time>
      </trkpt>
      <trkpt lat="44.30168" lon="4.57498">
        <ele>55</ele>
        <time>2021-07-04T13:26:37Z</time>
      </trkpt>
      <trkpt lat="44.30177" lon="4.57548">
        <ele>54</ele>
        <time>2021-07-04T13:26:45Z</time>
      </trkpt>
      <trkpt lat="44.30178" lon="4.57544">
        <ele>55</ele>
        <time>2021-07-04T13:26:46Z</time>
      </trkpt>
      <trkpt lat="44.30097" lon="4.57596">
        <ele>50</ele>
        <time>2021-07-04T13:27:07Z</time>
      </trkpt>
      <trkpt lat="44.30064" lon="4.57596">
        <ele>50</ele>
        <time>2021-07-04T13:27:15Z</time>
      </trkpt>
      <trkpt lat="44.30026" lon="4.57586">
        <ele>50</ele>
        <time>2021-07-04T13:27:24Z</time>
      </trkpt>
      <trkpt lat="44.29922" lon="4.57511">
        <ele>50</ele>
        <time>2021-07-04T13:27:51Z</time>
      </trkpt>
      <trkpt lat="44.29895" lon="4.57546">
        <ele>50</ele>
        <time>2021-07-04T13:28:00Z</time>
      </trkpt>
      <trkpt lat="44.29848" lon="4.57711">
        <ele>50</ele>
        <time>2021-07-04T13:28:29Z</time>
      </trkpt>
      <trkpt lat="44.29776" lon="4.57972">
        <ele>47</ele>
        <time>2021-07-04T13:29:16Z</time>
      </trkpt>
      <trkpt lat="44.29767" lon="4.58017">
        <ele>49</ele>
        <time>2021-07-04T13:29:24Z</time>
      </trkpt>
      <trkpt lat="44.29754" lon="4.58082">
        <ele>53</ele>
        <time>2021-07-04T13:29:35Z</time>
      </trkpt>
      <trkpt lat="44.29886" lon="4.58193">
        <ele>52</ele>
        <time>2021-07-04T13:30:11Z</time>
      </trkpt>
      <trkpt lat="44.29864" lon="4.58251">
        <ele>52</ele>
        <time>2021-07-04T13:30:22Z</time>
      </trkpt>
      <trkpt lat="44.29848" lon="4.58295">
        <ele>54</ele>
        <time>2021-07-04T13:30:30Z</time>
      </trkpt>
      <trkpt lat="44.29836" lon="4.5834">
        <ele>55</ele>
        <time>2021-07-04T13:30:38Z</time>
      </trkpt>
      <trkpt lat="44.29826" lon="4.58388">
        <ele>55</ele>
        <time>2021-07-04T13:30:47Z</time>
      </trkpt>
      <trkpt lat="44.29823" lon="4.58423">
        <ele>54</ele>
        <time>2021-07-04T13:30:53Z</time>
      </trkpt>
      <trkpt lat="44.29818" lon="4.58436">
        <ele>54</ele>
        <time>2021-07-04T13:30:55Z</time>
      </trkpt>
      <trkpt lat="44.29824" lon="4.5849">
        <ele>53</ele>
        <time>2021-07-04T13:31:04Z</time>
      </trkpt>
      <trkpt lat="44.29815" lon="4.58803">
        <ele>52</ele>
        <time>2021-07-04T13:31:56Z</time>
      </trkpt>
      <trkpt lat="44.29814" lon="4.58866">
        <ele>51</ele>
        <time>2021-07-04T13:32:07Z</time>
      </trkpt>
      <trkpt lat="44.29813" lon="4.58922">
        <ele>50</ele>
        <time>2021-07-04T13:32:16Z</time>
      </trkpt>
      <trkpt lat="44.29813" lon="4.58978">
        <ele>50</ele>
        <time>2021-07-04T13:32:26Z</time>
      </trkpt>
      <trkpt lat="44.29809" lon="4.59249">
        <ele>51</ele>
        <time>2021-07-04T13:33:11Z</time>
      </trkpt>
      <trkpt lat="44.29808" lon="4.593">
        <ele>51</ele>
        <time>2021-07-04T13:33:20Z</time>
      </trkpt>
      <trkpt lat="44.29803" lon="4.59449">
        <ele>52</ele>
        <time>2021-07-04T13:33:44Z</time>
      </trkpt>
      <trkpt lat="44.29802" lon="4.59498">
        <ele>52</ele>
        <time>2021-07-04T13:33:53Z</time>
      </trkpt>
      <trkpt lat="44.29791" lon="4.59563">
        <ele>53</ele>
        <time>2021-07-04T13:34:04Z</time>
      </trkpt>
      <trkpt lat="44.29786" lon="4.59592">
        <ele>53</ele>
        <time>2021-07-04T13:34:09Z</time>
      </trkpt>
      <trkpt lat="44.29777" lon="4.59634">
        <ele>53</ele>
        <time>2021-07-04T13:34:16Z</time>
      </trkpt>
      <trkpt lat="44.29775" lon="4.59674">
        <ele>52</ele>
        <time>2021-07-04T13:34:23Z</time>
      </trkpt>
      <trkpt lat="44.29775" lon="4.59701">
        <ele>52</ele>
        <time>2021-07-04T13:34:27Z</time>
      </trkpt>
      <trkpt lat="44.29779" lon="4.5973">
        <ele>51</ele>
        <time>2021-07-04T13:34:32Z</time>
      </trkpt>
      <trkpt lat="44.2979" lon="4.59759">
        <ele>50</ele>
        <time>2021-07-04T13:34:38Z</time>
      </trkpt>
      <trkpt lat="44.2979" lon="4.59781">
        <ele>50</ele>
        <time>2021-07-04T13:34:41Z</time>
      </trkpt>
      <trkpt lat="44.29781" lon="4.59805">
        <ele>51</ele>
        <time>2021-07-04T13:34:46Z</time>
      </trkpt>
      <trkpt lat="44.2978" lon="4.59812">
        <ele>51</ele>
        <time>2021-07-04T13:34:47Z</time>
      </trkpt>
      <trkpt lat="44.29789" lon="4.59844">
        <ele>51</ele>
        <time>2021-07-04T13:34:53Z</time>
      </trkpt>
      <trkpt lat="44.29796" lon="4.59887">
        <ele>52</ele>
        <time>2021-07-04T13:35:00Z</time>
      </trkpt>
      <trkpt lat="44.29804" lon="4.5993">
        <ele>53</ele>
        <time>2021-07-04T13:35:08Z</time>
      </trkpt>
      <trkpt lat="44.29812" lon="4.60009">
        <ele>52</ele>
        <time>2021-07-04T13:35:21Z</time>
      </trkpt>
      <trkpt lat="44.29808" lon="4.60032">
        <ele>53</ele>
        <time>2021-07-04T13:35:25Z</time>
      </trkpt>
      <trkpt lat="44.29776" lon="4.60094">
        <ele>54</ele>
        <time>2021-07-04T13:35:38Z</time>
      </trkpt>
      <trkpt lat="44.29771" lon="4.60103">
        <ele>54</ele>
        <time>2021-07-04T13:35:40Z</time>
      </trkpt>
      <trkpt lat="44.29769" lon="4.6011">
        <ele>54</ele>
        <time>2021-07-04T13:35:41Z</time>
      </trkpt>
      <trkpt lat="44.29753" lon="4.60147">
        <ele>54</ele>
        <time>2021-07-04T13:35:48Z</time>
      </trkpt>
      <trkpt lat="44.29719" lon="4.60245">
        <ele>52</ele>
        <time>2021-07-04T13:36:06Z</time>
      </trkpt>
      <trkpt lat="44.29703" lon="4.60297">
        <ele>52</ele>
        <time>2021-07-04T13:36:16Z</time>
      </trkpt>
      <trkpt lat="44.29692" lon="4.60325">
        <ele>53</ele>
        <time>2021-07-04T13:36:21Z</time>
      </trkpt>
      <trkpt lat="44.29681" lon="4.60355">
        <ele>53</ele>
        <time>2021-07-04T13:36:27Z</time>
      </trkpt>
      <trkpt lat="44.29654" lon="4.60413">
        <ele>52</ele>
        <time>2021-07-04T13:36:38Z</time>
      </trkpt>
      <trkpt lat="44.29631" lon="4.60462">
        <ele>53</ele>
        <time>2021-07-04T13:36:48Z</time>
      </trkpt>
      <trkpt lat="44.2959" lon="4.60548">
        <ele>53</ele>
        <time>2021-07-04T13:37:05Z</time>
      </trkpt>
      <trkpt lat="44.29587" lon="4.60551">
        <ele>53</ele>
        <time>2021-07-04T13:37:06Z</time>
      </trkpt>
      <trkpt lat="44.29582" lon="4.60553">
        <ele>53</ele>
        <time>2021-07-04T13:37:08Z</time>
      </trkpt>
      <trkpt lat="44.29547" lon="4.60554">
        <ele>52</ele>
        <time>2021-07-04T13:37:16Z</time>
      </trkpt>
      <trkpt lat="44.29511" lon="4.60559">
        <ele>51</ele>
        <time>2021-07-04T13:37:24Z</time>
      </trkpt>
      <trkpt lat="44.29495" lon="4.60563">
        <ele>51</ele>
        <time>2021-07-04T13:37:28Z</time>
      </trkpt>
      <trkpt lat="44.2948" lon="4.60568">
        <ele>50</ele>
        <time>2021-07-04T13:37:32Z</time>
      </trkpt>
      <trkpt lat="44.29469" lon="4.60574">
        <ele>49</ele>
        <time>2021-07-04T13:37:34Z</time>
      </trkpt>
      <trkpt lat="44.29406" lon="4.6064">
        <ele>46</ele>
        <time>2021-07-04T13:37:53Z</time>
      </trkpt>
      <trkpt lat="44.29373" lon="4.60648">
        <ele>45</ele>
        <time>2021-07-04T13:38:01Z</time>
      </trkpt>
      <trkpt lat="44.29321" lon="4.60633">
        <ele>44</ele>
        <time>2021-07-04T13:38:13Z</time>
      </trkpt>
      <trkpt lat="44.29274" lon="4.60649">
        <ele>46</ele>
        <time>2021-07-04T13:38:24Z</time>
      </trkpt>
      <trkpt lat="44.29258" lon="4.60621">
        <ele>46</ele>
        <time>2021-07-04T13:38:30Z</time>
      </trkpt>
      <trkpt lat="44.29241" lon="4.60549">
        <ele>47</ele>
        <time>2021-07-04T13:38:43Z</time>
      </trkpt>
      <trkpt lat="44.29216" lon="4.60465">
        <ele>49</ele>
        <time>2021-07-04T13:38:58Z</time>
      </trkpt>
      <trkpt lat="44.29196" lon="4.60425">
        <ele>50</ele>
        <time>2021-07-04T13:39:06Z</time>
      </trkpt>
      <trkpt lat="44.29116" lon="4.60358">
        <ele>49</ele>
        <time>2021-07-04T13:39:28Z</time>
      </trkpt>
      <trkpt lat="44.2903" lon="4.60298">
        <ele>48</ele>
        <time>2021-07-04T13:39:50Z</time>
      </trkpt>
      <trkpt lat="44.28989" lon="4.60256">
        <ele>49</ele>
        <time>2021-07-04T13:40:02Z</time>
      </trkpt>
      <trkpt lat="44.28974" lon="4.60232">
        <ele>47</ele>
        <time>2021-07-04T13:40:08Z</time>
      </trkpt>
      <trkpt lat="44.2899" lon="4.60157">
        <ele>44</ele>
        <time>2021-07-04T13:40:21Z</time>
      </trkpt>
      <trkpt lat="44.29013" lon="4.60071">
        <ele>46</ele>
        <time>2021-07-04T13:40:36Z</time>
      </trkpt>
      <trkpt lat="44.29" lon="4.60015">
        <ele>47</ele>
        <time>2021-07-04T13:40:46Z</time>
      </trkpt>
      <trkpt lat="44.28963" lon="4.59983">
        <ele>48</ele>
        <time>2021-07-04T13:40:56Z</time>
      </trkpt>
      <trkpt lat="44.28938" lon="4.59947">
        <ele>49</ele>
        <time>2021-07-04T13:41:05Z</time>
      </trkpt>
      <trkpt lat="44.28938" lon="4.59799">
        <ele>47</ele>
        <time>2021-07-04T13:41:29Z</time>
      </trkpt>
      <trkpt lat="44.2894" lon="4.598">
        <ele>47</ele>
        <time>2021-07-04T13:41:30Z</time>
      </trkpt>
      <trkpt lat="44.28949" lon="4.59765">
        <ele>46</ele>
        <time>2021-07-04T13:41:36Z</time>
      </trkpt>
      <trkpt lat="44.2896" lon="4.59738">
        <ele>46</ele>
        <time>2021-07-04T13:41:41Z</time>
      </trkpt>
      <trkpt lat="44.28968" lon="4.5971">
        <ele>46</ele>
        <time>2021-07-04T13:41:46Z</time>
      </trkpt>
      <trkpt lat="44.28984" lon="4.59681">
        <ele>47</ele>
        <time>2021-07-04T13:41:52Z</time>
      </trkpt>
      <trkpt lat="44.28998" lon="4.59665">
        <ele>48</ele>
        <time>2021-07-04T13:41:57Z</time>
      </trkpt>
      <trkpt lat="44.29006" lon="4.59634">
        <ele>48</ele>
        <time>2021-07-04T13:42:02Z</time>
      </trkpt>
      <trkpt lat="44.29026" lon="4.59582">
        <ele>49</ele>
        <time>2021-07-04T13:42:12Z</time>
      </trkpt>
      <trkpt lat="44.2904" lon="4.59527">
        <ele>47</ele>
        <time>2021-07-04T13:42:22Z</time>
      </trkpt>
      <trkpt lat="44.29053" lon="4.59496">
        <ele>47</ele>
        <time>2021-07-04T13:42:28Z</time>
      </trkpt>
      <trkpt lat="44.2906" lon="4.59448">
        <ele>48</ele>
        <time>2021-07-04T13:42:36Z</time>
      </trkpt>
      <trkpt lat="44.29066" lon="4.594">
        <ele>48</ele>
        <time>2021-07-04T13:42:44Z</time>
      </trkpt>
      <trkpt lat="44.29086" lon="4.59295">
        <ele>47</ele>
        <time>2021-07-04T13:43:02Z</time>
      </trkpt>
      <trkpt lat="44.29097" lon="4.59265">
        <ele>47</ele>
        <time>2021-07-04T13:43:08Z</time>
      </trkpt>
      <trkpt lat="44.29109" lon="4.59249">
        <ele>48</ele>
        <time>2021-07-04T13:43:12Z</time>
      </trkpt>
      <trkpt lat="44.29122" lon="4.5925">
        <ele>49</ele>
        <time>2021-07-04T13:43:15Z</time>
      </trkpt>
      <trkpt lat="44.29145" lon="4.59209">
        <ele>50</ele>
        <time>2021-07-04T13:43:23Z</time>
      </trkpt>
      <trkpt lat="44.29169" lon="4.59173">
        <ele>51</ele>
        <time>2021-07-04T13:43:32Z</time>
      </trkpt>
      <trkpt lat="44.2922" lon="4.59122">
        <ele>51</ele>
        <time>2021-07-04T13:43:46Z</time>
      </trkpt>
      <trkpt lat="44.29236" lon="4.59086">
        <ele>51</ele>
        <time>2021-07-04T13:43:53Z</time>
      </trkpt>
      <trkpt lat="44.29261" lon="4.59088">
        <ele>52</ele>
        <time>2021-07-04T13:43:59Z</time>
      </trkpt>
      <trkpt lat="44.29251" lon="4.59024">
        <ele>52</ele>
        <time>2021-07-04T13:44:10Z</time>
      </trkpt>
      <trkpt lat="44.29321" lon="4.58903">
        <ele>49</ele>
        <time>2021-07-04T13:44:36Z</time>
      </trkpt>
      <trkpt lat="44.29353" lon="4.58817">
        <ele>49</ele>
        <time>2021-07-04T13:44:52Z</time>
      </trkpt>
      <trkpt lat="44.29378" lon="4.58777">
        <ele>51</ele>
        <time>2021-07-04T13:45:01Z</time>
      </trkpt>
      <trkpt lat="44.29413" lon="4.58739">
        <ele>53</ele>
        <time>2021-07-04T13:45:12Z</time>
      </trkpt>
      <trkpt lat="44.29442" lon="4.58722">
        <ele>52</ele>
        <time>2021-07-04T13:45:19Z</time>
      </trkpt>
      <trkpt lat="44.29412" lon="4.58675">
        <ele>53</ele>
        <time>2021-07-04T13:45:29Z</time>
      </trkpt>
      <trkpt lat="44.29416" lon="4.5862">
        <ele>53</ele>
        <time>2021-07-04T13:45:39Z</time>
      </trkpt>
      <trkpt lat="44.29496" lon="4.58496">
        <ele>50</ele>
        <time>2021-07-04T13:46:07Z</time>
      </trkpt>
      <trkpt lat="44.29515" lon="4.5846">
        <ele>49</ele>
        <time>2021-07-04T13:46:14Z</time>
      </trkpt>
      <trkpt lat="44.29552" lon="4.58433">
        <ele>50</ele>
        <time>2021-07-04T13:46:24Z</time>
      </trkpt>
      <trkpt lat="44.29626" lon="4.58419">
        <ele>51</ele>
        <time>2021-07-04T13:46:41Z</time>
      </trkpt>
      <trkpt lat="44.2963" lon="4.58267">
        <ele>46</ele>
        <time>2021-07-04T13:47:07Z</time>
      </trkpt>
      <trkpt lat="44.29682" lon="4.58172">
        <ele>48</ele>
        <time>2021-07-04T13:47:27Z</time>
      </trkpt>
      <trkpt lat="44.29743" lon="4.58105">
        <ele>54</ele>
        <time>2021-07-04T13:47:45Z</time>
      </trkpt>
      <trkpt lat="44.29822" lon="4.57817">
        <ele>47</ele>
        <time>2021-07-04T13:48:36Z</time>
      </trkpt>
      <trkpt lat="44.29885" lon="4.5757">
        <ele>50</ele>
        <time>2021-07-04T13:49:20Z</time>
      </trkpt>
      <trkpt lat="44.29921" lon="4.57511">
        <ele>50</ele>
        <time>2021-07-04T13:49:33Z</time>
      </trkpt>
      <trkpt lat="44.30021" lon="4.57587">
        <ele>50</ele>
        <time>2021-07-04T13:50:00Z</time>
      </trkpt>
      <trkpt lat="44.30064" lon="4.57598">
        <ele>50</ele>
        <time>2021-07-04T13:50:10Z</time>
      </trkpt>
      <trkpt lat="44.30108" lon="4.57589">
        <ele>51</ele>
        <time>2021-07-04T13:50:20Z</time>
      </trkpt>
      <trkpt lat="44.30178" lon="4.57544">
        <ele>55</ele>
        <time>2021-07-04T13:50:38Z</time>
      </trkpt>
      <trkpt lat="44.30106" lon="4.57317">
        <ele>56</ele>
        <time>2021-07-04T13:51:20Z</time>
      </trkpt>
      <trkpt lat="44.30079" lon="4.57268">
        <ele>56</ele>
        <time>2021-07-04T13:51:30Z</time>
      </trkpt>
      <trkpt lat="44.30034" lon="4.57076">
        <ele>54</ele>
        <time>2021-07-04T13:52:04Z</time>
      </trkpt>
      <trkpt lat="44.3003" lon="4.57035">
        <ele>52</ele>
        <time>2021-07-04T13:52:11Z</time>
      </trkpt>
      <trkpt lat="44.3005" lon="4.5694">
        <ele>51</ele>
        <time>2021-07-04T13:52:27Z</time>
      </trkpt>
      <trkpt lat="44.30096" lon="4.56746">
        <ele>55</ele>
        <time>2021-07-04T13:53:02Z</time>
      </trkpt>
      <trkpt lat="44.29916" lon="4.56653">
        <ele>57</ele>
        <time>2021-07-04T13:53:46Z</time>
      </trkpt>
      <trkpt lat="44.29932" lon="4.56621">
        <ele>56</ele>
        <time>2021-07-04T13:53:53Z</time>
      </trkpt>
      <trkpt lat="44.2996" lon="4.56544">
        <ele>56</ele>
        <time>2021-07-04T13:54:07Z</time>
      </trkpt>
      <trkpt lat="44.29976" lon="4.5649">
        <ele>58</ele>
        <time>2021-07-04T13:54:17Z</time>
      </trkpt>
      <trkpt lat="44.29984" lon="4.5645">
        <ele>62</ele>
        <time>2021-07-04T13:54:24Z</time>
      </trkpt>
      <trkpt lat="44.30016" lon="4.56327">
        <ele>71</ele>
        <time>2021-07-04T13:54:46Z</time>
      </trkpt>
      <trkpt lat="44.30023" lon="4.56242">
        <ele>73</ele>
        <time>2021-07-04T13:55:00Z</time>
      </trkpt>
      <trkpt lat="44.30038" lon="4.56151">
        <ele>78</ele>
        <time>2021-07-04T13:55:16Z</time>
      </trkpt>
      <trkpt lat="44.30072" lon="4.56061">
        <ele>85</ele>
        <time>2021-07-04T13:55:33Z</time>
      </trkpt>
      <trkpt lat="44.30136" lon="4.55896">
        <ele>89</ele>
        <time>2021-07-04T13:56:04Z</time>
      </trkpt>
      <trkpt lat="44.30141" lon="4.55867">
        <ele>90</ele>
        <time>2021-07-04T13:56:09Z</time>
      </trkpt>
      <trkpt lat="44.30128" lon="4.55834">
        <ele>95</ele>
        <time>2021-07-04T13:56:15Z</time>
      </trkpt>
      <trkpt lat="44.30122" lon="4.55802">
        <ele>95</ele>
        <time>2021-07-04T13:56:21Z</time>
      </trkpt>
      <trkpt lat="44.30118" lon="4.55753">
        <ele>94</ele>
        <time>2021-07-04T13:56:29Z</time>
      </trkpt>
      <trkpt lat="44.30105" lon="4.55713">
        <ele>94</ele>
        <time>2021-07-04T13:56:37Z</time>
      </trkpt>
      <trkpt lat="44.30103" lon="4.5568">
        <ele>94</ele>
        <time>2021-07-04T13:56:42Z</time>
      </trkpt>
      <trkpt lat="44.30277" lon="4.55603">
        <ele>93</ele>
        <time>2021-07-04T13:57:25Z</time>
      </trkpt>
      <trkpt lat="44.30194" lon="4.55492">
        <ele>94</ele>
        <time>2021-07-04T13:57:52Z</time>
      </trkpt>
    </trkseg>
  </trk>
</gpx>